Village of Oakview, Missouri
Current Conditions -  °F | °C
As of 11:54 PM on Monday 26 Jan 2015 (Local Time) from KMKC Reporting Station
Clear Clear  
Wind Chill: 29°   Ceiling: Unl
Heat Index: 34°   Visibility: 10mi
Dew Point: 29°   Wind: 6mph
Humidity: 82%   Direction: 40°NE
Pressure: 30.03"   Gusts: NA
Location:  39.213°N, 94.5752°W
Report Text: KMKC 270554Z 04005KT 10SM CLR 01/M02 A3003 RMK AO2 SLP172 T00111017 10139 20011 401671028 53010
Loading
Personal Weather Stations






























Interactive Weather Map New forecast layout! Learn more

10-Day Weather Forecast

Advertisements
Track Severe Weather on mobile